sensor_id;sensor_type;location;lat;lon;timestamp;P1;durP1;ratioP1;P2;durP2;ratioP2
65234;SDS011;51820;48.374;10.930;2023-02-08T00:01:25;15.30;;;5.72;;
65234;SDS011;51820;48.374;10.930;2023-02-08T00:03:54;16.08;;;6.65;;
65234;SDS011;51820;48.374;10.930;2023-02-08T00:06:24;13.30;;;5.63;;
65234;SDS011;51820;48.374;10.930;2023-02-08T00:08:52;18.85;;;6.13;;
65234;SDS011;51820;48.374;10.930;2023-02-08T00:11:20;16.23;;;6.68;;
65234;SDS011;51820;48.374;10.930;2023-02-08T00:13:48;15.88;;;6.30;;
65234;SDS011;51820;48.374;10.930;2023-02-08T00:16:17;16.02;;;5.97;;
65234;SDS011;51820;48.374;10.930;2023-02-08T00:18:45;16.37;;;6.17;;
65234;SDS011;51820;48.374;10.930;2023-02-08T00:21:15;17.10;;;6.10;;
65234;SDS011;51820;48.374;10.930;2023-02-08T00:23:45;15.55;;;5.53;;
65234;SDS011;51820;48.374;10.930;2023-02-08T00:26:14;14.95;;;6.28;;
65234;SDS011;51820;48.374;10.930;2023-02-08T00:28:42;17.00;;;6.72;;
65234;SDS011;51820;48.374;10.930;2023-02-08T00:31:11;18.77;;;6.20;;
65234;SDS011;51820;48.374;10.930;2023-02-08T00:33:40;15.70;;;5.97;;
65234;SDS011;51820;48.374;10.930;2023-02-08T00:36:09;16.15;;;6.82;;
65234;SDS011;51820;48.374;10.930;2023-02-08T00:38:40;14.00;;;5.53;;
65234;SDS011;51820;48.374;10.930;2023-02-08T00:41:10;13.07;;;5.63;;
65234;SDS011;51820;48.374;10.930;2023-02-08T00:43:38;16.20;;;6.67;;
65234;SDS011;51820;48.374;10.930;2023-02-08T00:46:07;15.73;;;5.85;;
65234;SDS011;51820;48.374;10.930;2023-02-08T00:48:36;14.13;;;6.10;;
65234;SDS011;51820;48.374;10.930;2023-02-08T00:51:06;15.70;;;6.30;;
65234;SDS011;51820;48.374;10.930;2023-02-08T00:53:41;17.10;;;7.10;;
65234;SDS011;51820;48.374;10.930;2023-02-08T00:56:12;17.47;;;6.60;;
65234;SDS011;51820;48.374;10.930;2023-02-08T00:58:41;17.88;;;6.78;;
65234;SDS011;51820;48.374;10.930;2023-02-08T01:01:10;16.70;;;6.63;;
65234;SDS011;51820;48.374;10.930;2023-02-08T01:03:39;17.65;;;6.35;;
65234;SDS011;51820;48.374;10.930;2023-02-08T01:06:09;14.90;;;6.10;;
65234;SDS011;51820;48.374;10.930;2023-02-08T01:08:39;16.30;;;6.17;;
65234;SDS011;51820;48.374;10.930;2023-02-08T01:11:08;17.10;;;6.32;;
65234;SDS011;51820;48.374;10.930;2023-02-08T01:13:39;16.88;;;6.57;;
65234;SDS011;51820;48.374;10.930;2023-02-08T01:16:09;20.50;;;6.32;;
65234;SDS011;51820;48.374;10.930;2023-02-08T01:18:40;17.40;;;6.55;;
65234;SDS011;51820;48.374;10.930;2023-02-08T01:21:10;16.40;;;6.07;;
65234;SDS011;51820;48.374;10.930;2023-02-08T01:23:39;15.85;;;5.93;;
65234;SDS011;51820;48.374;10.930;2023-02-08T01:26:09;16.17;;;6.75;;
65234;SDS011;51820;48.374;10.930;2023-02-08T01:28:38;18.20;;;7.07;;
65234;SDS011;51820;48.374;10.930;2023-02-08T01:31:09;17.75;;;7.13;;
65234;SDS011;51820;48.374;10.930;2023-02-08T01:33:39;16.37;;;5.90;;
65234;SDS011;51820;48.374;10.930;2023-02-08T01:36:08;17.75;;;6.68;;
65234;SDS011;51820;48.374;10.930;2023-02-08T01:38:40;16.63;;;6.93;;
65234;SDS011;51820;48.374;10.930;2023-02-08T01:41:10;18.63;;;7.03;;
65234;SDS011;51820;48.374;10.930;2023-02-08T01:43:59;24.35;;;6.72;;
65234;SDS011;51820;48.374;10.930;2023-02-08T01:46:45;17.17;;;6.33;;
65234;SDS011;51820;48.374;10.930;2023-02-08T01:49:21;16.33;;;6.30;;
65234;SDS011;51820;48.374;10.930;2023-02-08T01:51:52;22.27;;;7.65;;
65234;SDS011;51820;48.374;10.930;2023-02-08T01:54:30;19.30;;;6.93;;
65234;SDS011;51820;48.374;10.930;2023-02-08T01:57:06;20.52;;;7.22;;
65234;SDS011;51820;48.374;10.930;2023-02-08T01:59:50;17.00;;;6.63;;
65234;SDS011;51820;48.374;10.930;2023-02-08T02:02:40;15.10;;;6.20;;
65234;SDS011;51820;48.374;10.930;2023-02-08T02:05:10;20.02;;;6.93;;
65234;SDS011;51820;48.374;10.930;2023-02-08T02:07:39;17.27;;;7.13;;
65234;SDS011;51820;48.374;10.930;2023-02-08T02:10:08;17.67;;;6.97;;
65234;SDS011;51820;48.374;10.930;2023-02-08T02:12:41;17.40;;;6.50;;
65234;SDS011;51820;48.374;10.930;2023-02-08T02:15:10;20.25;;;6.65;;
65234;SDS011;51820;48.374;10.930;2023-02-08T02:17:40;18.55;;;7.47;;
65234;SDS011;51820;48.374;10.930;2023-02-08T02:20:10;19.70;;;7.57;;
65234;SDS011;51820;48.374;10.930;2023-02-08T02:25:56;15.97;;;6.30;;
65234;SDS011;51820;48.374;10.930;2023-02-08T02:28:59;18.98;;;7.53;;
65234;SDS011;51820;48.374;10.930;2023-02-08T02:31:52;20.42;;;7.43;;
65234;SDS011;51820;48.374;10.930;2023-02-08T02:34:28;20.67;;;7.90;;
65234;SDS011;51820;48.374;10.930;2023-02-08T02:37:08;18.83;;;6.63;;
65234;SDS011;51820;48.374;10.930;2023-02-08T02:39:49;19.80;;;7.20;;
65234;SDS011;51820;48.374;10.930;2023-02-08T02:42:27;18.05;;;6.63;;
65234;SDS011;51820;48.374;10.930;2023-02-08T02:45:22;21.00;;;7.88;;
65234;SDS011;51820;48.374;10.930;2023-02-08T02:48:01;20.20;;;7.30;;
65234;SDS011;51820;48.374;10.930;2023-02-08T02:50:36;21.45;;;7.88;;
65234;SDS011;51820;48.374;10.930;2023-02-08T02:53:09;20.83;;;7.37;;
65234;SDS011;51820;48.374;10.930;2023-02-08T02:55:46;21.63;;;7.95;;
65234;SDS011;51820;48.374;10.930;2023-02-08T02:58:17;20.05;;;7.85;;
65234;SDS011;51820;48.374;10.930;2023-02-08T03:00:58;18.52;;;7.65;;
65234;SDS011;51820;48.374;10.930;2023-02-08T03:03:31;20.50;;;8.30;;
65234;SDS011;51820;48.374;10.930;2023-02-08T03:06:02;18.60;;;8.00;;
65234;SDS011;51820;48.374;10.930;2023-02-08T03:11:27;20.27;;;8.10;;
65234;SDS011;51820;48.374;10.930;2023-02-08T03:14:03;20.00;;;7.95;;
65234;SDS011;51820;48.374;10.930;2023-02-08T03:16:56;20.77;;;7.90;;
65234;SDS011;51820;48.374;10.930;2023-02-08T03:19:33;19.23;;;6.73;;
65234;SDS011;51820;48.374;10.930;2023-02-08T03:22:08;19.65;;;7.50;;
65234;SDS011;51820;48.374;10.930;2023-02-08T03:24:43;16.05;;;7.00;;
65234;SDS011;51820;48.374;10.930;2023-02-08T03:27:20;24.75;;;7.07;;
65234;SDS011;51820;48.374;10.930;2023-02-08T03:29:55;20.80;;;7.78;;
65234;SDS011;51820;48.374;10.930;2023-02-08T03:32:29;19.40;;;7.40;;
65234;SDS011;51820;48.374;10.930;2023-02-08T03:35:04;21.75;;;7.90;;
65234;SDS011;51820;48.374;10.930;2023-02-08T03:37:37;22.80;;;8.43;;
65234;SDS011;51820;48.374;10.930;2023-02-08T03:40:09;18.27;;;7.00;;
65234;SDS011;51820;48.374;10.930;2023-02-08T03:42:43;18.63;;;7.13;;
65234;SDS011;51820;48.374;10.930;2023-02-08T03:45:14;22.67;;;7.87;;
65234;SDS011;51820;48.374;10.930;2023-02-08T03:47:45;19.83;;;7.68;;
65234;SDS011;51820;48.374;10.930;2023-02-08T03:50:18;20.13;;;8.55;;
65234;SDS011;51820;48.374;10.930;2023-02-08T03:52:48;16.23;;;6.75;;
65234;SDS011;51820;48.374;10.930;2023-02-08T03:55:19;17.95;;;6.47;;
65234;SDS011;51820;48.374;10.930;2023-02-08T03:57:51;16.27;;;7.90;;
65234;SDS011;51820;48.374;10.930;2023-02-08T04:00:24;21.10;;;7.60;;
65234;SDS011;51820;48.374;10.930;2023-02-08T04:02:55;24.83;;;8.60;;
65234;SDS011;51820;48.374;10.930;2023-02-08T04:05:29;17.63;;;7.25;;
65234;SDS011;51820;48.374;10.930;2023-02-08T04:07:57;18.30;;;7.78;;
65234;SDS011;51820;48.374;10.930;2023-02-08T04:10:26;21.90;;;7.80;;
65234;SDS011;51820;48.374;10.930;2023-02-08T04:12:54;21.50;;;7.38;;
65234;SDS011;51820;48.374;10.930;2023-02-08T04:15:23;16.63;;;7.55;;
65234;SDS011;51820;48.374;10.930;2023-02-08T04:17:52;23.85;;;7.95;;
65234;SDS011;51820;48.374;10.930;2023-02-08T04:20:21;18.75;;;7.45;;
65234;SDS011;51820;48.374;10.930;2023-02-08T04:22:50;25.63;;;8.10;;
65234;SDS011;51820;48.374;10.930;2023-02-08T04:25:19;20.45;;;7.90;;
65234;SDS011;51820;48.374;10.930;2023-02-08T04:27:48;21.10;;;7.57;;
65234;SDS011;51820;48.374;10.930;2023-02-08T04:30:16;23.42;;;8.18;;
65234;SDS011;51820;48.374;10.930;2023-02-08T04:32:45;19.55;;;7.65;;
65234;SDS011;51820;48.374;10.930;2023-02-08T04:35:13;21.13;;;7.10;;
65234;SDS011;51820;48.374;10.930;2023-02-08T04:37:44;23.77;;;7.90;;
65234;SDS011;51820;48.374;10.930;2023-02-08T04:40:14;18.67;;;8.52;;
65234;SDS011;51820;48.374;10.930;2023-02-08T04:42:42;18.83;;;7.55;;
65234;SDS011;51820;48.374;10.930;2023-02-08T04:45:10;22.27;;;8.30;;
65234;SDS011;51820;48.374;10.930;2023-02-08T04:47:39;21.03;;;8.33;;
65234;SDS011;51820;48.374;10.930;2023-02-08T04:50:07;22.70;;;8.23;;
65234;SDS011;51820;48.374;10.930;2023-02-08T04:52:36;23.60;;;8.70;;
65234;SDS011;51820;48.374;10.930;2023-02-08T04:55:05;22.02;;;8.07;;
65234;SDS011;51820;48.374;10.930;2023-02-08T04:57:35;20.02;;;7.78;;
65234;SDS011;51820;48.374;10.930;2023-02-08T05:00:03;26.23;;;8.90;;
65234;SDS011;51820;48.374;10.930;2023-02-08T05:02:32;22.60;;;8.55;;
65234;SDS011;51820;48.374;10.930;2023-02-08T05:05:01;24.83;;;8.75;;
65234;SDS011;51820;48.374;10.930;2023-02-08T05:07:29;19.23;;;8.15;;
65234;SDS011;51820;48.374;10.930;2023-02-08T05:09:58;22.80;;;9.25;;
65234;SDS011;51820;48.374;10.930;2023-02-08T05:12:26;25.23;;;9.30;;
65234;SDS011;51820;48.374;10.930;2023-02-08T05:14:56;22.05;;;8.38;;
65234;SDS011;51820;48.374;10.930;2023-02-08T05:17:24;25.52;;;8.55;;
65234;SDS011;51820;48.374;10.930;2023-02-08T05:19:54;20.17;;;8.18;;
65234;SDS011;51820;48.374;10.930;2023-02-08T05:22:22;23.90;;;8.32;;
65234;SDS011;51820;48.374;10.930;2023-02-08T05:24:51;22.50;;;8.17;;
65234;SDS011;51820;48.374;10.930;2023-02-08T05:27:19;28.02;;;8.38;;
65234;SDS011;51820;48.374;10.930;2023-02-08T05:29:48;23.23;;;9.43;;
65234;SDS011;51820;48.374;10.930;2023-02-08T05:32:18;21.10;;;8.60;;
65234;SDS011;51820;48.374;10.930;2023-02-08T05:34:46;22.33;;;8.75;;
65234;SDS011;51820;48.374;10.930;2023-02-08T05:37:14;28.47;;;9.13;;
65234;SDS011;51820;48.374;10.930;2023-02-08T05:39:43;21.70;;;8.27;;
65234;SDS011;51820;48.374;10.930;2023-02-08T05:42:11;20.88;;;8.20;;
65234;SDS011;51820;48.374;10.930;2023-02-08T05:44:39;25.50;;;8.88;;
65234;SDS011;51820;48.374;10.930;2023-02-08T05:47:08;21.38;;;9.20;;
65234;SDS011;51820;48.374;10.930;2023-02-08T05:49:38;26.60;;;9.80;;
65234;SDS011;51820;48.374;10.930;2023-02-08T05:52:09;26.05;;;9.40;;
65234;SDS011;51820;48.374;10.930;2023-02-08T05:54:37;24.10;;;9.43;;
65234;SDS011;51820;48.374;10.930;2023-02-08T05:57:06;23.08;;;9.07;;
65234;SDS011;51820;48.374;10.930;2023-02-08T05:59:34;26.05;;;9.38;;
65234;SDS011;51820;48.374;10.930;2023-02-08T06:02:02;24.93;;;8.03;;
65234;SDS011;51820;48.374;10.930;2023-02-08T06:04:31;25.45;;;8.77;;
65234;SDS011;51820;48.374;10.930;2023-02-08T06:07:01;24.40;;;9.35;;
65234;SDS011;51820;48.374;10.930;2023-02-08T06:09:29;23.08;;;8.80;;
65234;SDS011;51820;48.374;10.930;2023-02-08T06:11:58;30.05;;;10.82;;
65234;SDS011;51820;48.374;10.930;2023-02-08T06:14:26;27.30;;;9.10;;
65234;SDS011;51820;48.374;10.930;2023-02-08T06:16:55;20.17;;;8.77;;
65234;SDS011;51820;48.374;10.930;2023-02-08T06:19:37;23.02;;;10.15;;
65234;SDS011;51820;48.374;10.930;2023-02-08T06:22:08;30.05;;;9.70;;
65234;SDS011;51820;48.374;10.930;2023-02-08T06:24:36;25.25;;;10.25;;
65234;SDS011;51820;48.374;10.930;2023-02-08T06:27:08;28.13;;;10.07;;
65234;SDS011;51820;48.374;10.930;2023-02-08T06:29:36;21.08;;;9.07;;
65234;SDS011;51820;48.374;10.930;2023-02-08T06:32:05;22.80;;;9.18;;
65234;SDS011;51820;48.374;10.930;2023-02-08T06:34:33;22.08;;;9.27;;
65234;SDS011;51820;48.374;10.930;2023-02-08T06:37:05;27.85;;;10.30;;
65234;SDS011;51820;48.374;10.930;2023-02-08T06:39:35;33.03;;;10.53;;
65234;SDS011;51820;48.374;10.930;2023-02-08T06:42:03;22.88;;;9.57;;
65234;SDS011;51820;48.374;10.930;2023-02-08T06:44:32;28.15;;;10.98;;
65234;SDS011;51820;48.374;10.930;2023-02-08T06:47:01;30.27;;;11.35;;
65234;SDS011;51820;48.374;10.930;2023-02-08T06:49:29;33.22;;;10.88;;
65234;SDS011;51820;48.374;10.930;2023-02-08T06:52:04;29.37;;;10.90;;
65234;SDS011;51820;48.374;10.930;2023-02-08T06:54:35;25.48;;;9.93;;
65234;SDS011;51820;48.374;10.930;2023-02-08T06:57:04;23.67;;;9.60;;
65234;SDS011;51820;48.374;10.930;2023-02-08T06:59:33;24.95;;;10.38;;
65234;SDS011;51820;48.374;10.930;2023-02-08T07:02:02;24.13;;;10.27;;
65234;SDS011;51820;48.374;10.930;2023-02-08T07:04:32;33.40;;;10.30;;
65234;SDS011;51820;48.374;10.930;2023-02-08T07:07:01;26.42;;;10.27;;
65234;SDS011;51820;48.374;10.930;2023-02-08T07:09:33;23.45;;;10.15;;
65234;SDS011;51820;48.374;10.930;2023-02-08T07:12:04;26.02;;;10.35;;
65234;SDS011;51820;48.374;10.930;2023-02-08T07:14:32;26.23;;;10.20;;
65234;SDS011;51820;48.374;10.930;2023-02-08T07:17:01;27.77;;;10.60;;
65234;SDS011;51820;48.374;10.930;2023-02-08T07:19:30;28.90;;;11.80;;
65234;SDS011;51820;48.374;10.930;2023-02-08T07:21:59;30.58;;;12.25;;
65234;SDS011;51820;48.374;10.930;2023-02-08T07:24:33;29.58;;;12.13;;
65234;SDS011;51820;48.374;10.930;2023-02-08T07:27:04;28.23;;;11.23;;
65234;SDS011;51820;48.374;10.930;2023-02-08T07:29:34;24.00;;;10.83;;
65234;SDS011;51820;48.374;10.930;2023-02-08T07:32:03;27.17;;;10.10;;
65234;SDS011;51820;48.374;10.930;2023-02-08T07:34:33;24.38;;;10.05;;
65234;SDS011;51820;48.374;10.930;2023-02-08T07:37:03;26.55;;;10.55;;
65234;SDS011;51820;48.374;10.930;2023-02-08T07:39:32;23.73;;;10.52;;
65234;SDS011;51820;48.374;10.930;2023-02-08T07:42:00;26.57;;;10.87;;
65234;SDS011;51820;48.374;10.930;2023-02-08T07:44:36;27.05;;;10.15;;
65234;SDS011;51820;48.374;10.930;2023-02-08T07:47:05;42.53;;;18.02;;
65234;SDS011;51820;48.374;10.930;2023-02-08T07:49:33;30.90;;;12.40;;
65234;SDS011;51820;48.374;10.930;2023-02-08T07:52:02;28.48;;;11.23;;
65234;SDS011;51820;48.374;10.930;2023-02-08T07:58:00;24.88;;;10.23;;
65234;SDS011;51820;48.374;10.930;2023-02-08T08:00:30;26.10;;;10.43;;
65234;SDS011;51820;48.374;10.930;2023-02-08T08:02:59;27.08;;;11.02;;
65234;SDS011;51820;48.374;10.930;2023-02-08T08:05:27;24.55;;;10.00;;
65234;SDS011;51820;48.374;10.930;2023-02-08T08:07:57;26.87;;;10.33;;
65234;SDS011;51820;48.374;10.930;2023-02-08T08:10:26;21.63;;;9.07;;
65234;SDS011;51820;48.374;10.930;2023-02-08T08:12:54;26.35;;;11.30;;
65234;SDS011;51820;48.374;10.930;2023-02-08T08:15:23;20.45;;;9.88;;
65234;SDS011;51820;48.374;10.930;2023-02-08T08:17:52;20.58;;;8.80;;
65234;SDS011;51820;48.374;10.930;2023-02-08T08:20:21;25.57;;;10.57;;
65234;SDS011;51820;48.374;10.930;2023-02-08T08:22:50;27.98;;;11.95;;
65234;SDS011;51820;48.374;10.930;2023-02-08T08:25:18;23.88;;;9.52;;
65234;SDS011;51820;48.374;10.930;2023-02-08T08:27:47;25.35;;;11.15;;
65234;SDS011;51820;48.374;10.930;2023-02-08T08:30:16;31.70;;;10.98;;
65234;SDS011;51820;48.374;10.930;2023-02-08T08:32:45;23.67;;;9.47;;
65234;SDS011;51820;48.374;10.930;2023-02-08T08:35:15;23.80;;;10.20;;
65234;SDS011;51820;48.374;10.930;2023-02-08T08:37:45;26.38;;;9.82;;
65234;SDS011;51820;48.374;10.930;2023-02-08T08:40:18;28.08;;;10.07;;
65234;SDS011;51820;48.374;10.930;2023-02-08T08:42:48;25.23;;;9.98;;
65234;SDS011;51820;48.374;10.930;2023-02-08T08:45:17;27.30;;;10.03;;
65234;SDS011;51820;48.374;10.930;2023-02-08T08:47:46;21.58;;;9.70;;
65234;SDS011;51820;48.374;10.930;2023-02-08T08:50:17;22.25;;;9.95;;
65234;SDS011;51820;48.374;10.930;2023-02-08T08:52:45;22.30;;;9.43;;
65234;SDS011;51820;48.374;10.930;2023-02-08T08:55:14;28.75;;;9.80;;
65234;SDS011;51820;48.374;10.930;2023-02-08T08:57:42;26.03;;;9.37;;
65234;SDS011;51820;48.374;10.930;2023-02-08T09:00:11;23.50;;;9.88;;
65234;SDS011;51820;48.374;10.930;2023-02-08T09:02:40;25.50;;;10.32;;
65234;SDS011;51820;48.374;10.930;2023-02-08T09:05:09;23.40;;;9.50;;
65234;SDS011;51820;48.374;10.930;2023-02-08T09:07:39;21.55;;;9.68;;
65234;SDS011;51820;48.374;10.930;2023-02-08T09:10:07;25.97;;;9.60;;
65234;SDS011;51820;48.374;10.930;2023-02-08T09:12:36;27.77;;;9.73;;
65234;SDS011;51820;48.374;10.930;2023-02-08T09:15:05;26.55;;;10.38;;
65234;SDS011;51820;48.374;10.930;2023-02-08T09:17:36;23.55;;;9.57;;
65234;SDS011;51820;48.374;10.930;2023-02-08T09:20:05;25.95;;;9.95;;
65234;SDS011;51820;48.374;10.930;2023-02-08T09:22:33;25.37;;;9.43;;
65234;SDS011;51820;48.374;10.930;2023-02-08T09:25:04;22.20;;;9.80;;
65234;SDS011;51820;48.374;10.930;2023-02-08T09:27:33;23.65;;;9.95;;
65234;SDS011;51820;48.374;10.930;2023-02-08T09:30:02;29.05;;;10.43;;
65234;SDS011;51820;48.374;10.930;2023-02-08T09:32:32;25.17;;;9.80;;
65234;SDS011;51820;48.374;10.930;2023-02-08T09:35:14;27.47;;;9.87;;
65234;SDS011;51820;48.374;10.930;2023-02-08T09:37:45;24.00;;;10.27;;
65234;SDS011;51820;48.374;10.930;2023-02-08T09:40:18;23.15;;;10.32;;
65234;SDS011;51820;48.374;10.930;2023-02-08T09:42:51;23.30;;;9.43;;
65234;SDS011;51820;48.374;10.930;2023-02-08T09:45:37;25.65;;;10.60;;
65234;SDS011;51820;48.374;10.930;2023-02-08T09:48:25;25.40;;;10.13;;
65234;SDS011;51820;48.374;10.930;2023-02-08T09:50:56;29.17;;;9.70;;
65234;SDS011;51820;48.374;10.930;2023-02-08T09:53:30;29.35;;;10.80;;
65234;SDS011;51820;48.374;10.930;2023-02-08T09:56:04;22.58;;;10.15;;
65234;SDS011;51820;48.374;10.930;2023-02-08T09:58:40;22.83;;;9.15;;
65234;SDS011;51820;48.374;10.930;2023-02-08T10:01:12;23.30;;;9.37;;
65234;SDS011;51820;48.374;10.930;2023-02-08T10:03:45;20.52;;;8.77;;
65234;SDS011;51820;48.374;10.930;2023-02-08T10:06:15;22.83;;;9.75;;
65234;SDS011;51820;48.374;10.930;2023-02-08T10:08:47;23.60;;;9.25;;
65234;SDS011;51820;48.374;10.930;2023-02-08T10:11:22;24.77;;;10.60;;
65234;SDS011;51820;48.374;10.930;2023-02-08T10:14:04;25.57;;;9.70;;
65234;SDS011;51820;48.374;10.930;2023-02-08T10:16:44;23.65;;;9.85;;
65234;SDS011;51820;48.374;10.930;2023-02-08T10:19:25;25.17;;;10.50;;
65234;SDS011;51820;48.374;10.930;2023-02-08T10:22:21;22.25;;;9.90;;
65234;SDS011;51820;48.374;10.930;2023-02-08T10:25:05;21.88;;;9.13;;
65234;SDS011;51820;48.374;10.930;2023-02-08T10:27:50;24.50;;;9.43;;
65234;SDS011;51820;48.374;10.930;2023-02-08T10:30:35;24.40;;;9.55;;
65234;SDS011;51820;48.374;10.930;2023-02-08T10:33:13;24.38;;;10.52;;
65234;SDS011;51820;48.374;10.930;2023-02-08T10:35:45;22.00;;;9.70;;
65234;SDS011;51820;48.374;10.930;2023-02-08T10:38:20;23.58;;;9.88;;
65234;SDS011;51820;48.374;10.930;2023-02-08T10:41:00;25.57;;;10.40;;
65234;SDS011;51820;48.374;10.930;2023-02-08T10:43:34;25.90;;;9.95;;
65234;SDS011;51820;48.374;10.930;2023-02-08T10:46:14;22.63;;;9.60;;
65234;SDS011;51820;48.374;10.930;2023-02-08T10:48:55;24.30;;;10.65;;
65234;SDS011;51820;48.374;10.930;2023-02-08T10:51:34;25.75;;;10.38;;
65234;SDS011;51820;48.374;10.930;2023-02-08T10:54:05;22.97;;;9.97;;
65234;SDS011;51820;48.374;10.930;2023-02-08T10:56:36;22.80;;;9.38;;
65234;SDS011;51820;48.374;10.930;2023-02-08T10:59:16;25.58;;;10.30;;
65234;SDS011;51820;48.374;10.930;2023-02-08T11:01:48;24.40;;;10.88;;
65234;SDS011;51820;48.374;10.930;2023-02-08T11:04:18;23.92;;;10.45;;
65234;SDS011;51820;48.374;10.930;2023-02-08T11:06:47;26.90;;;10.30;;
65234;SDS011;51820;48.374;10.930;2023-02-08T11:09:21;28.52;;;10.95;;
65234;SDS011;51820;48.374;10.930;2023-02-08T11:12:03;22.58;;;10.27;;
65234;SDS011;51820;48.374;10.930;2023-02-08T11:14:34;26.17;;;11.20;;
65234;SDS011;51820;48.374;10.930;2023-02-08T11:17:22;25.50;;;10.50;;
65234;SDS011;51820;48.374;10.930;2023-02-08T11:19:53;26.33;;;11.23;;
65234;SDS011;51820;48.374;10.930;2023-02-08T11:22:25;25.25;;;10.30;;
65234;SDS011;51820;48.374;10.930;2023-02-08T11:25:00;21.95;;;9.77;;
65234;SDS011;51820;48.374;10.930;2023-02-08T11:27:34;23.75;;;10.10;;
65234;SDS011;51820;48.374;10.930;2023-02-08T11:30:22;26.17;;;11.65;;
65234;SDS011;51820;48.374;10.930;2023-02-08T11:35:51;27.92;;;11.25;;
65234;SDS011;51820;48.374;10.930;2023-02-08T11:38:34;23.20;;;10.57;;
65234;SDS011;51820;48.374;10.930;2023-02-08T11:41:12;27.10;;;9.75;;
65234;SDS011;51820;48.374;10.930;2023-02-08T11:43:49;24.50;;;10.65;;
65234;SDS011;51820;48.374;10.930;2023-02-08T11:46:28;26.63;;;10.40;;
65234;SDS011;51820;48.374;10.930;2023-02-08T11:49:03;25.60;;;11.07;;
65234;SDS011;51820;48.374;10.930;2023-02-08T11:51:35;23.30;;;10.85;;
65234;SDS011;51820;48.374;10.930;2023-02-08T11:54:09;27.80;;;10.77;;
65234;SDS011;51820;48.374;10.930;2023-02-08T11:57:01;44.97;;;18.45;;
65234;SDS011;51820;48.374;10.930;2023-02-08T11:59:31;23.77;;;10.93;;
65234;SDS011;51820;48.374;10.930;2023-02-08T12:02:01;23.77;;;11.15;;
65234;SDS011;51820;48.374;10.930;2023-02-08T12:04:57;24.85;;;11.13;;
65234;SDS011;51820;48.374;10.930;2023-02-08T12:07:56;26.10;;;11.40;;
65234;SDS011;51820;48.374;10.930;2023-02-08T12:10:44;20.92;;;10.32;;
65234;SDS011;51820;48.374;10.930;2023-02-08T12:13:27;25.07;;;10.63;;
65234;SDS011;51820;48.374;10.930;2023-02-08T12:16:27;24.35;;;11.02;;
65234;SDS011;51820;48.374;10.930;2023-02-08T12:19:22;21.73;;;10.57;;
65234;SDS011;51820;48.374;10.930;2023-02-08T12:22:20;20.90;;;9.57;;
65234;SDS011;51820;48.374;10.930;2023-02-08T12:24:55;22.90;;;10.98;;
65234;SDS011;51820;48.374;10.930;2023-02-08T12:27:38;23.33;;;10.73;;
65234;SDS011;51820;48.374;10.930;2023-02-08T12:30:16;24.30;;;10.20;;
65234;SDS011;51820;48.374;10.930;2023-02-08T12:32:56;21.48;;;11.02;;
65234;SDS011;51820;48.374;10.930;2023-02-08T12:35:52;26.55;;;10.77;;
65234;SDS011;51820;48.374;10.930;2023-02-08T12:38:41;29.45;;;10.45;;
65234;SDS011;51820;48.374;10.930;2023-02-08T12:41:46;21.60;;;10.30;;
65234;SDS011;51820;48.374;10.930;2023-02-08T12:44:36;22.83;;;10.77;;
65234;SDS011;51820;48.374;10.930;2023-02-08T12:47:25;25.20;;;11.00;;
65234;SDS011;51820;48.374;10.930;2023-02-08T12:50:06;22.30;;;11.27;;
65234;SDS011;51820;48.374;10.930;2023-02-08T12:53:04;26.13;;;11.60;;
65234;SDS011;51820;48.374;10.930;2023-02-08T12:55:48;21.17;;;10.43;;
65234;SDS011;51820;48.374;10.930;2023-02-08T12:58:28;21.50;;;10.65;;
65234;SDS011;51820;48.374;10.930;2023-02-08T13:01:42;18.88;;;10.23;;
65234;SDS011;51820;48.374;10.930;2023-02-08T13:04:47;23.00;;;10.70;;
65234;SDS011;51820;48.374;10.930;2023-02-08T13:08:02;20.67;;;10.38;;
65234;SDS011;51820;48.374;10.930;2023-02-08T13:10:58;22.80;;;9.90;;
65234;SDS011;51820;48.374;10.930;2023-02-08T13:13:53;19.65;;;9.60;;
65234;SDS011;51820;48.374;10.930;2023-02-08T13:16:29;22.38;;;10.18;;
65234;SDS011;51820;48.374;10.930;2023-02-08T13:19:05;21.40;;;9.50;;
65234;SDS011;51820;48.374;10.930;2023-02-08T13:21:50;21.40;;;9.65;;
65234;SDS011;51820;48.374;10.930;2023-02-08T13:24:26;16.73;;;9.00;;
65234;SDS011;51820;48.374;10.930;2023-02-08T13:27:03;20.73;;;9.23;;
65234;SDS011;51820;48.374;10.930;2023-02-08T13:29:36;20.35;;;9.57;;
65234;SDS011;51820;48.374;10.930;2023-02-08T13:32:08;22.52;;;9.65;;
65234;SDS011;51820;48.374;10.930;2023-02-08T13:34:42;18.77;;;8.77;;
65234;SDS011;51820;48.374;10.930;2023-02-08T13:37:19;21.00;;;9.03;;
65234;SDS011;51820;48.374;10.930;2023-02-08T13:40:02;18.92;;;8.85;;
65234;SDS011;51820;48.374;10.930;2023-02-08T13:42:35;19.73;;;8.73;;
65234;SDS011;51820;48.374;10.930;2023-02-08T13:45:08;21.40;;;9.07;;
65234;SDS011;51820;48.374;10.930;2023-02-08T13:47:55;23.98;;;9.02;;
65234;SDS011;51820;48.374;10.930;2023-02-08T13:50:38;21.47;;;8.97;;
65234;SDS011;51820;48.374;10.930;2023-02-08T13:53:10;21.77;;;10.05;;
65234;SDS011;51820;48.374;10.930;2023-02-08T13:55:54;20.63;;;8.88;;
65234;SDS011;51820;48.374;10.930;2023-02-08T13:58:33;24.33;;;9.93;;
65234;SDS011;51820;48.374;10.930;2023-02-08T14:01:20;26.42;;;10.98;;
65234;SDS011;51820;48.374;10.930;2023-02-08T14:07:15;25.20;;;8.02;;
65234;SDS011;51820;48.374;10.930;2023-02-08T14:10:16;21.08;;;9.40;;
65234;SDS011;51820;48.374;10.930;2023-02-08T14:12:57;17.60;;;7.80;;
65234;SDS011;51820;48.374;10.930;2023-02-08T14:15:35;17.77;;;8.80;;
65234;SDS011;51820;48.374;10.930;2023-02-08T14:18:23;21.50;;;8.37;;
65234;SDS011;51820;48.374;10.930;2023-02-08T14:20:59;22.35;;;9.60;;
65234;SDS011;51820;48.374;10.930;2023-02-08T14:23:31;19.80;;;8.95;;
65234;SDS011;51820;48.374;10.930;2023-02-08T14:26:07;18.05;;;7.75;;
65234;SDS011;51820;48.374;10.930;2023-02-08T14:28:47;19.98;;;8.45;;
65234;SDS011;51820;48.374;10.930;2023-02-08T14:31:22;22.20;;;9.13;;
65234;SDS011;51820;48.374;10.930;2023-02-08T14:34:05;18.25;;;8.52;;
65234;SDS011;51820;48.374;10.930;2023-02-08T14:36:57;20.55;;;8.57;;
65234;SDS011;51820;48.374;10.930;2023-02-08T14:39:31;20.23;;;8.88;;
65234;SDS011;51820;48.374;10.930;2023-02-08T14:42:03;20.15;;;9.52;;
65234;SDS011;51820;48.374;10.930;2023-02-08T14:50:51;18.77;;;8.05;;
65234;SDS011;51820;48.374;10.930;2023-02-08T14:53:26;16.77;;;8.07;;
65234;SDS011;51820;48.374;10.930;2023-02-08T14:56:03;18.65;;;8.65;;
65234;SDS011;51820;48.374;10.930;2023-02-08T14:58:35;18.37;;;8.30;;
65234;SDS011;51820;48.374;10.930;2023-02-08T15:01:13;20.35;;;8.52;;
65234;SDS011;51820;48.374;10.930;2023-02-08T15:04:04;19.27;;;8.55;;
65234;SDS011;51820;48.374;10.930;2023-02-08T15:06:42;19.35;;;8.60;;
65234;SDS011;51820;48.374;10.930;2023-02-08T15:09:28;20.77;;;8.73;;
65234;SDS011;51820;48.374;10.930;2023-02-08T15:12:01;16.80;;;8.40;;
65234;SDS011;51820;48.374;10.930;2023-02-08T15:14:35;19.77;;;8.32;;
65234;SDS011;51820;48.374;10.930;2023-02-08T15:17:15;20.98;;;8.65;;
65234;SDS011;51820;48.374;10.930;2023-02-08T15:19:53;22.15;;;9.20;;
65234;SDS011;51820;48.374;10.930;2023-02-08T15:22:32;19.75;;;8.70;;